East Glacier, Montana
Current Conditions -  °F | °C
As of 1:55 PM on Tuesday 25 Nov 2014 (Local Time) from KGPI Reporting Station
Haze Haze  
Wind Chill: 35°   Ceiling: 11000
Heat Index: 35°   Visibility: 6mi
Dew Point: 33°   Wind: 0mph
Humidity: 92%   Direction: NA
Pressure: 30.07"   Gusts: NA
Location:  48.7064°N, 113.591°W
Report Text: KGPI 252055Z 00000KT 6SM BR BKN110 02/01 A3007 RMK AO2 SLP206 T00170006 50002
Loading
Personal Weather Stations






























Interactive Weather Map New forecast layout! Learn more

10-Day Weather Forecast

Advertisements
Track Severe Weather on mobile